createdAt,value
2022-07-30T00:06:47.333Z,16.91
2022-07-30T00:16:47.584Z,16.96
2022-07-30T00:26:47.749Z,16.78
2022-07-30T00:36:47.952Z,16.86
2022-07-30T00:46:48.176Z,16.94
2022-07-30T00:56:48.320Z,17.03
2022-07-30T01:06:48.557Z,16.96
2022-07-30T01:16:48.850Z,17.07
2022-07-30T01:26:48.932Z,17.07
2022-07-30T01:36:49.163Z,17.00
2022-07-30T01:46:49.388Z,16.98
2022-07-30T01:56:49.623Z,17.01
2022-07-30T02:06:49.723Z,17.03
2022-07-30T02:16:49.900Z,16.93
2022-07-30T02:26:50.011Z,17.00
2022-07-30T02:36:50.051Z,16.94
2022-07-30T02:46:50.332Z,16.91
2022-07-30T02:56:50.563Z,16.76
2022-07-30T03:06:50.624Z,16.75
2022-07-30T03:16:50.851Z,16.64
2022-07-30T03:26:50.913Z,16.53
2022-07-30T03:36:51.129Z,16.64
2022-07-30T03:46:51.393Z,16.68
2022-07-30T03:56:51.685Z,16.71
2022-07-30T04:06:52.087Z,16.73
2022-07-30T04:16:51.985Z,16.76
2022-07-30T04:26:52.046Z,16.79
2022-07-30T04:36:52.253Z,16.79
2022-07-30T04:46:52.518Z,16.76
2022-07-30T04:56:54.007Z,16.83
2022-07-30T05:06:52.800Z,17.06
2022-07-30T05:16:53.054Z,17.21
2022-07-30T05:26:53.339Z,17.33
2022-07-30T05:36:53.387Z,17.33
2022-07-30T05:46:53.448Z,17.33
2022-07-30T05:56:53.703Z,17.49
2022-07-30T06:06:53.945Z,17.70
2022-07-30T06:16:54.343Z,17.75
2022-07-30T06:26:54.382Z,17.90
2022-07-30T06:36:54.549Z,18.03
2022-07-30T06:46:54.785Z,17.99
2022-07-30T06:56:55.045Z,18.25
2022-07-30T07:06:56.191Z,18.72
2022-07-30T07:16:55.495Z,19.21
2022-07-30T07:26:55.545Z,19.29
2022-07-30T07:36:55.800Z,19.08
2022-07-30T07:46:56.061Z,19.00
2022-07-30T07:56:57.303Z,19.28
2022-07-30T08:06:56.546Z,19.91
2022-07-30T08:16:56.842Z,20.03
2022-07-30T08:26:56.925Z,20.47
2022-07-30T08:36:57.188Z,20.98
2022-07-30T08:46:57.409Z,20.92
2022-07-30T08:56:57.695Z,21.86
2022-07-30T09:06:57.787Z,22.14
2022-07-30T09:16:57.892Z,21.98
2022-07-30T09:26:57.933Z,22.80
2022-07-30T09:36:58.213Z,23.78
2022-07-30T09:46:58.505Z,24.10
2022-07-30T09:57:01.904Z,23.23
2022-07-30T10:06:58.655Z,23.51
2022-07-30T10:16:58.787Z,25.02
2022-07-30T10:26:59.235Z,23.60
2022-07-30T10:36:59.186Z,25.47
2022-07-30T10:46:59.572Z,25.02
2022-07-30T10:57:00.497Z,26.65
2022-07-30T11:06:59.414Z,26.77
2022-07-30T11:16:59.739Z,25.79
2022-07-30T11:27:00.407Z,27.09
2022-07-30T11:36:59.901Z,27.59
2022-07-30T11:47:00.227Z,25.85
2022-07-30T11:57:04.373Z,23.93
2022-07-30T12:07:00.673Z,23.84
2022-07-30T12:17:00.963Z,24.84
2022-07-30T12:27:01.130Z,24.02
2022-07-30T12:37:01.321Z,23.80
2022-07-30T12:47:01.560Z,24.55
2022-07-30T12:57:01.992Z,24.24
2022-07-30T13:07:01.897Z,24.87
2022-07-30T13:17:02.140Z,24.42
2022-07-30T13:27:02.145Z,23.78
2022-07-30T13:37:02.418Z,23.55
2022-07-30T13:47:02.438Z,23.98
2022-07-30T13:57:02.711Z,24.88
2022-07-30T14:07:02.957Z,24.15
2022-07-30T14:17:03.263Z,24.58
2022-07-30T14:27:03.513Z,25.40
2022-07-30T14:37:03.540Z,25.36
2022-07-30T14:47:03.842Z,25.72
2022-07-30T14:57:03.958Z,25.83
2022-07-30T15:07:03.819Z,26.01
2022-07-30T15:17:04.649Z,25.99
2022-07-30T15:27:04.150Z,26.50
2022-07-30T15:37:05.433Z,26.57
2022-07-30T15:47:04.735Z,26.73
2022-07-30T15:57:04.889Z,26.29
2022-07-30T16:07:05.261Z,25.52
2022-07-30T16:17:05.190Z,25.98
2022-07-30T16:27:05.264Z,25.57
2022-07-30T16:37:05.478Z,24.47
2022-07-30T16:47:05.647Z,24.10
2022-07-30T16:57:08.336Z,24.02
2022-07-30T17:07:06.858Z,23.66
2022-07-30T17:17:07.218Z,23.50
2022-07-30T17:27:06.149Z,23.01
2022-07-30T17:37:06.253Z,23.12
2022-07-30T17:47:08.004Z,22.86
2022-07-30T17:57:07.451Z,22.97
2022-07-30T18:07:06.751Z,22.90
2022-07-30T18:17:09.046Z,22.76
2022-07-30T18:27:07.706Z,22.65
2022-07-30T18:37:06.766Z,22.49
2022-07-30T18:47:07.055Z,22.49
2022-07-30T18:57:10.116Z,22.28
2022-07-30T19:07:08.355Z,22.18
2022-07-30T19:17:14.176Z,22.27
2022-07-30T19:27:13.707Z,21.99
2022-07-30T19:37:09.076Z,21.94
2022-07-30T19:47:08.309Z,21.91
2022-07-30T19:57:08.537Z,21.79
2022-07-30T20:07:08.754Z,21.69
2022-07-30T20:17:13.114Z,21.44
2022-07-30T20:27:36.275Z,21.46
2022-07-30T20:47:10.229Z,21.10
2022-07-30T20:57:15.809Z,20.95
2022-07-30T21:07:10.637Z,20.92
2022-07-30T21:17:09.946Z,20.85
2022-07-30T21:27:10.085Z,20.76
2022-07-30T21:37:10.417Z,20.69
2022-07-30T21:47:10.852Z,20.72
2022-07-30T21:57:11.587Z,20.51
2022-07-30T22:07:10.815Z,20.35
2022-07-30T22:17:19.253Z,20.21
2022-07-30T22:27:14.702Z,20.21
2022-07-30T22:37:12.902Z,20.16
2022-07-30T22:47:21.828Z,20.08
2022-07-30T22:57:14.847Z,20.01
2022-07-30T23:07:13.994Z,19.87
2022-07-30T23:12:18.962Z,21.32
2022-07-30T23:17:12.961Z,19.83
2022-07-30T23:27:13.249Z,19.83
2022-07-30T23:37:14.760Z,19.69
2022-07-30T23:47:12.773Z,19.77
2022-07-30T23:57:12.616Z,19.73
